createdAt,value
2023-03-29T00:01:37.075Z,25.43
2023-03-29T00:04:08.420Z,25.42
2023-03-29T00:06:39.306Z,25.43
2023-03-29T00:09:11.694Z,25.43
2023-03-29T00:11:41.540Z,25.42
2023-03-29T00:14:12.179Z,25.43
2023-03-29T00:16:45.012Z,25.43
2023-03-29T00:19:14.959Z,25.43
2023-03-29T00:21:45.372Z,25.43
2023-03-29T00:24:17.471Z,25.42
2023-03-29T00:26:47.992Z,25.41
2023-03-29T00:29:18.301Z,25.40
2023-03-29T00:31:54.216Z,25.40
2023-03-29T00:34:25.518Z,25.40
2023-03-29T00:36:58.474Z,25.39
2023-03-29T00:39:32.468Z,25.39
2023-03-29T00:42:02.372Z,25.38
2023-03-29T00:45:03.096Z,25.37
2023-03-29T00:47:39.812Z,25.36
2023-03-29T00:50:16.806Z,25.36
2023-03-29T00:52:53.582Z,25.34
2023-03-29T00:55:29.608Z,25.34
2023-03-29T00:58:01.461Z,25.33
2023-03-29T01:00:41.459Z,25.33
2023-03-29T01:03:25.483Z,25.31
2023-03-29T01:06:02.970Z,25.30
2023-03-29T01:08:39.656Z,25.29
2023-03-29T01:11:19.786Z,25.28
2023-03-29T01:13:58.509Z,25.27
2023-03-29T01:16:31.640Z,25.26
2023-03-29T01:19:02.945Z,25.26
2023-03-29T01:21:43.179Z,25.25
2023-03-29T01:24:42.589Z,25.23
2023-03-29T01:27:23.941Z,25.23
2023-03-29T01:30:00.587Z,25.21
2023-03-29T01:32:39.158Z,25.21
2023-03-29T01:35:18.321Z,25.21
2023-03-29T01:37:57.034Z,25.20
2023-03-29T01:40:31.464Z,25.19
2023-03-29T01:43:14.273Z,25.18
2023-03-29T01:45:53.220Z,25.17
2023-03-29T01:48:32.542Z,25.17
2023-03-29T01:51:11.414Z,25.17
2023-03-29T01:53:49.404Z,25.17
2023-03-29T01:56:25.296Z,25.17
2023-03-29T01:59:04.411Z,25.16
2023-03-29T02:01:44.158Z,25.16
2023-03-29T02:04:18.935Z,25.15
2023-03-29T02:06:54.575Z,25.14
2023-03-29T02:09:26.412Z,25.13
2023-03-29T02:12:01.330Z,25.14
2023-03-29T02:14:31.529Z,25.13
2023-03-29T02:17:22.224Z,25.12
2023-03-29T02:19:58.611Z,25.12
2023-03-29T02:22:38.692Z,25.11
2023-03-29T02:25:11.342Z,25.09
2023-03-29T02:27:42.408Z,25.10
2023-03-29T02:30:16.171Z,25.09
2023-03-29T02:32:56.374Z,25.08
2023-03-29T02:35:36.801Z,25.08
2023-03-29T02:38:12.829Z,25.06
2023-03-29T02:40:44.880Z,25.06
2023-03-29T02:43:19.074Z,25.06
2023-03-29T02:45:50.804Z,25.06
2023-03-29T02:48:29.868Z,25.07
2023-03-29T02:51:06.791Z,25.08
2023-03-29T02:53:45.927Z,25.08
2023-03-29T02:56:17.325Z,25.09
2023-03-29T02:58:48.897Z,25.09
2023-03-29T03:01:21.059Z,25.10
2023-03-29T03:03:53.559Z,25.10
2023-03-29T03:06:24.628Z,25.11
2023-03-29T03:08:54.825Z,25.12
2023-03-29T03:11:25.560Z,25.12
2023-03-29T03:13:55.963Z,25.13
2023-03-29T03:16:26.812Z,25.13
2023-03-29T03:18:58.519Z,25.13
2023-03-29T03:21:29.181Z,25.13
2023-03-29T03:24:00.329Z,25.15
2023-03-29T03:26:30.736Z,25.16
2023-03-29T03:29:01.642Z,25.17
2023-03-29T03:31:33.888Z,25.17
2023-03-29T03:34:05.274Z,25.17
2023-03-29T03:36:35.926Z,25.20
2023-03-29T03:39:09.689Z,25.21
2023-03-29T03:41:40.232Z,25.18
2023-03-29T03:44:10.789Z,25.20
2023-03-29T03:46:41.296Z,25.18
2023-03-29T03:49:14.478Z,25.18
2023-03-29T03:51:45.910Z,25.17
2023-03-29T03:54:16.780Z,25.16
2023-03-29T03:56:48.550Z,25.14
2023-03-29T03:59:19.678Z,25.14
2023-03-29T04:01:50.342Z,25.13
2023-03-29T04:04:23.724Z,25.14
2023-03-29T04:06:54.195Z,25.13
2023-03-29T04:09:24.957Z,25.12
2023-03-29T04:11:55.445Z,25.12
2023-03-29T04:14:26.487Z,25.10
2023-03-29T04:16:56.877Z,25.09
2023-03-29T04:19:28.493Z,25.06
2023-03-29T04:21:58.956Z,25.05
2023-03-29T04:24:30.003Z,25.02
2023-03-29T04:27:00.504Z,24.99
2023-03-29T04:29:31.339Z,24.96
2023-03-29T04:32:01.639Z,24.95
2023-03-29T04:34:34.103Z,24.95
2023-03-29T04:37:10.458Z,24.95
2023-03-29T04:39:41.515Z,24.97
2023-03-29T04:42:12.561Z,24.99
2023-03-29T04:44:44.174Z,25.02
2023-03-29T04:47:15.132Z,25.05
2023-03-29T04:49:47.001Z,25.07
2023-03-29T04:52:17.433Z,25.10
2023-03-29T04:54:47.927Z,25.13
2023-03-29T04:57:18.548Z,25.16
2023-03-29T04:59:48.971Z,25.20
2023-03-29T05:02:19.459Z,25.24
2023-03-29T05:04:52.398Z,25.28
2023-03-29T05:07:23.448Z,25.30
2023-03-29T05:09:53.719Z,25.34
2023-03-29T05:12:24.068Z,25.35
2023-03-29T05:14:54.606Z,25.39
2023-03-29T05:17:24.677Z,25.44
2023-03-29T05:19:58.519Z,25.48
2023-03-29T05:22:30.061Z,25.51
2023-03-29T05:25:00.123Z,25.56
2023-03-29T05:27:30.209Z,25.60
2023-03-29T05:30:00.046Z,25.64
2023-03-29T05:32:30.973Z,25.68
2023-03-29T05:35:03.691Z,25.71
2023-03-29T05:37:35.902Z,25.75
2023-03-29T05:40:10.510Z,25.81
2023-03-29T05:42:41.226Z,25.86
2023-03-29T05:45:13.398Z,25.89
2023-03-29T05:47:43.754Z,25.92
2023-03-29T05:50:16.546Z,25.96
2023-03-29T05:52:48.220Z,25.99
2023-03-29T05:55:18.977Z,26.06
2023-03-29T05:57:49.341Z,26.12
2023-03-29T06:00:24.468Z,26.20
2023-03-29T06:03:01.368Z,26.22
2023-03-29T06:05:42.602Z,26.26
2023-03-29T06:08:12.718Z,26.30
2023-03-29T06:10:43.490Z,26.34
2023-03-29T06:13:13.295Z,26.38
2023-03-29T06:15:43.764Z,26.42
2023-03-29T06:18:13.627Z,26.45
2023-03-29T06:20:46.020Z,26.50
2023-03-29T06:23:16.490Z,26.54
2023-03-29T06:25:48.037Z,26.57
2023-03-29T06:28:18.583Z,26.60
2023-03-29T06:30:49.761Z,26.64
2023-03-29T06:33:20.949Z,26.66
2023-03-29T06:35:53.419Z,26.71
2023-03-29T06:38:24.988Z,26.74
2023-03-29T06:41:02.263Z,26.79
2023-03-29T06:43:35.103Z,26.83
2023-03-29T06:46:07.085Z,26.88
2023-03-29T06:48:37.365Z,26.94
2023-03-29T06:51:09.980Z,27.00
2023-03-29T06:53:42.973Z,27.04
2023-03-29T06:56:13.555Z,27.07
2023-03-29T06:58:45.471Z,27.10
2023-03-29T07:01:15.622Z,27.13
2023-03-29T07:03:47.845Z,27.12
2023-03-29T07:06:20.955Z,27.13
2023-03-29T07:08:53.779Z,27.16
2023-03-29T07:11:24.064Z,27.19
2023-03-29T07:13:54.133Z,27.20
2023-03-29T07:16:25.106Z,27.24
2023-03-29T07:18:55.216Z,27.25
2023-03-29T07:21:29.819Z,27.28
2023-03-29T07:24:00.411Z,27.33
2023-03-29T07:26:31.205Z,27.37
2023-03-29T07:29:01.873Z,27.41
2023-03-29T07:31:33.398Z,27.47
2023-03-29T07:34:06.770Z,27.53
2023-03-29T07:36:38.989Z,27.58
2023-03-29T07:39:13.318Z,27.61
2023-03-29T07:41:43.315Z,27.63
2023-03-29T07:44:14.861Z,27.67
2023-03-29T07:46:45.213Z,27.68
2023-03-29T07:49:16.338Z,27.69
2023-03-29T07:51:50.176Z,27.71
2023-03-29T07:54:21.663Z,27.71
2023-03-29T07:56:52.193Z,27.72
2023-03-29T07:59:22.812Z,27.77
2023-03-29T08:01:53.682Z,27.82
2023-03-29T08:04:24.563Z,27.86
2023-03-29T08:06:59.449Z,27.92
2023-03-29T08:09:30.219Z,27.97
2023-03-29T08:12:01.067Z,28.02
2023-03-29T08:14:32.133Z,28.10
2023-03-29T08:17:02.180Z,28.17
2023-03-29T08:19:33.032Z,28.23
2023-03-29T08:22:06.410Z,28.24
2023-03-29T08:24:37.403Z,28.25
2023-03-29T08:27:08.433Z,28.27
2023-03-29T08:29:39.042Z,28.28
2023-03-29T08:32:10.004Z,28.29
2023-03-29T08:34:40.656Z,28.31
2023-03-29T08:37:14.174Z,28.32
2023-03-29T08:39:44.866Z,28.31
2023-03-29T08:42:49.511Z,28.30
2023-03-29T08:45:30.167Z,28.31
2023-03-29T08:48:19.074Z,28.36
2023-03-29T08:50:54.931Z,28.42
2023-03-29T08:53:36.892Z,28.45
2023-03-29T08:56:16.089Z,28.48
2023-03-29T08:58:49.084Z,28.49
2023-03-29T09:01:20.398Z,28.50
2023-03-29T09:04:02.470Z,28.51
2023-03-29T09:06:35.316Z,28.49
2023-03-29T09:09:17.445Z,28.46
2023-03-29T09:12:09.270Z,28.42
2023-03-29T09:15:05.057Z,28.39
2023-03-29T09:17:52.932Z,28.36
2023-03-29T09:20:41.273Z,28.34
2023-03-29T09:23:34.442Z,28.34
2023-03-29T09:26:20.000Z,28.35
2023-03-29T09:29:00.530Z,28.37
2023-03-29T09:31:36.380Z,28.41
2023-03-29T09:34:15.916Z,28.43
2023-03-29T09:36:57.111Z,28.43
2023-03-29T09:39:32.392Z,28.48
2023-03-29T09:42:09.580Z,28.48
2023-03-29T09:44:47.538Z,28.51
2023-03-29T09:47:26.816Z,28.55
2023-03-29T09:50:04.539Z,28.58
2023-03-29T09:52:35.200Z,28.62
2023-03-29T09:55:08.498Z,28.65
2023-03-29T09:57:41.461Z,28.65
2023-03-29T10:00:15.048Z,28.67
2023-03-29T10:02:54.064Z,28.68
2023-03-29T10:05:27.802Z,28.68
2023-03-29T10:08:04.094Z,28.70
2023-03-29T10:10:37.295Z,28.66
2023-03-29T10:13:19.639Z,28.64
2023-03-29T10:16:11.583Z,28.65
2023-03-29T10:18:45.627Z,28.65
2023-03-29T10:21:20.711Z,28.65
2023-03-29T10:23:53.300Z,28.65
2023-03-29T10:26:33.492Z,28.63
2023-03-29T10:29:10.178Z,28.64
2023-03-29T10:31:43.634Z,28.64
2023-03-29T10:34:18.545Z,28.66
2023-03-29T10:36:58.154Z,28.70
2023-03-29T10:39:34.576Z,28.74
2023-03-29T10:42:08.864Z,28.76
2023-03-29T10:44:42.082Z,28.77
2023-03-29T10:47:21.426Z,28.78
2023-03-29T10:49:56.949Z,28.75
2023-03-29T10:52:28.554Z,28.72
2023-03-29T10:55:01.112Z,28.70
2023-03-29T10:57:47.061Z,28.68
2023-03-29T11:00:29.882Z,28.64
2023-03-29T11:03:21.940Z,28.63
2023-03-29T11:06:01.982Z,28.58
2023-03-29T11:09:00.840Z,28.52
2023-03-29T11:12:14.451Z,28.47
2023-03-29T11:15:05.916Z,28.44
2023-03-29T11:18:02.498Z,28.38
2023-03-29T11:20:42.496Z,28.31
2023-03-29T11:23:38.108Z,28.27
2023-03-29T11:26:17.701Z,28.24
2023-03-29T11:28:57.719Z,28.21
2023-03-29T11:31:48.006Z,28.15
2023-03-29T11:34:35.205Z,28.11
2023-03-29T11:37:21.048Z,28.07
2023-03-29T11:40:11.654Z,28.00
2023-03-29T11:42:48.397Z,27.98
2023-03-29T11:45:29.264Z,27.96
2023-03-29T11:48:01.808Z,27.92
2023-03-29T11:50:43.814Z,27.89
2023-03-29T11:53:22.530Z,27.88
2023-03-29T11:55:57.758Z,27.85
2023-03-29T11:58:39.027Z,27.83
2023-03-29T12:01:16.628Z,27.81
2023-03-29T12:03:53.655Z,27.79
2023-03-29T12:06:35.287Z,27.76
2023-03-29T12:09:16.747Z,27.74
2023-03-29T12:12:00.168Z,27.71
2023-03-29T12:14:43.333Z,27.68
2023-03-29T12:17:21.588Z,27.66
2023-03-29T12:20:05.127Z,27.65
2023-03-29T12:22:39.569Z,27.66
2023-03-29T12:25:20.210Z,27.67
2023-03-29T12:28:11.589Z,27.68
2023-03-29T12:31:03.904Z,27.65
2023-03-29T12:34:10.529Z,27.63
2023-03-29T12:37:12.265Z,27.61
2023-03-29T12:39:45.696Z,27.59
2023-03-29T12:42:20.678Z,27.58
2023-03-29T12:44:59.964Z,27.56
2023-03-29T12:47:43.105Z,27.55
2023-03-29T12:50:28.886Z,27.50
2023-03-29T12:53:19.971Z,27.46
2023-03-29T12:56:11.893Z,27.44
2023-03-29T12:59:08.053Z,27.44
2023-03-29T13:01:41.668Z,27.44
2023-03-29T13:04:21.758Z,27.41
2023-03-29T13:07:05.520Z,27.40
2023-03-29T13:09:49.955Z,27.35
2023-03-29T13:12:33.544Z,27.34
2023-03-29T13:15:08.981Z,27.34
2023-03-29T13:17:53.526Z,27.33
2023-03-29T13:20:43.614Z,27.31
2023-03-29T13:23:34.418Z,27.30
2023-03-29T13:26:32.982Z,27.28
2023-03-29T13:29:48.543Z,27.26
2023-03-29T13:32:51.533Z,27.24
2023-03-29T13:35:42.186Z,27.21
2023-03-29T13:38:23.607Z,27.18
2023-03-29T13:41:06.177Z,27.17
2023-03-29T13:43:59.333Z,27.15
2023-03-29T13:46:44.055Z,27.10
2023-03-29T13:49:23.791Z,27.03
2023-03-29T13:52:17.054Z,26.95
2023-03-29T13:54:57.318Z,26.91
2023-03-29T13:57:39.351Z,26.88
2023-03-29T14:00:25.815Z,26.87
2023-03-29T14:03:02.947Z,26.84
2023-03-29T14:05:38.476Z,26.83
2023-03-29T14:08:17.721Z,26.81
2023-03-29T14:10:49.765Z,26.77
2023-03-29T14:13:24.545Z,26.74
2023-03-29T14:16:03.074Z,26.70
2023-03-29T14:18:45.456Z,26.67
2023-03-29T14:21:17.796Z,26.60
2023-03-29T14:23:50.317Z,26.60
2023-03-29T14:26:24.004Z,26.56
2023-03-29T14:28:58.005Z,26.55
2023-03-29T14:31:33.431Z,26.54
2023-03-29T14:34:09.060Z,26.52
2023-03-29T14:36:40.832Z,26.50
2023-03-29T14:39:18.780Z,26.47
2023-03-29T14:41:54.550Z,26.43
2023-03-29T14:44:29.818Z,26.38
2023-03-29T14:47:00.983Z,26.35
2023-03-29T14:49:34.794Z,26.31
2023-03-29T14:52:05.602Z,26.27
2023-03-29T14:54:37.324Z,26.21
2023-03-29T14:57:09.771Z,26.18
2023-03-29T14:59:44.943Z,26.13
2023-03-29T15:02:31.764Z,26.10
2023-03-29T15:05:07.032Z,26.05
2023-03-29T15:07:40.336Z,26.00
2023-03-29T15:10:19.625Z,25.98
2023-03-29T15:12:50.942Z,25.96
2023-03-29T15:15:22.691Z,25.94
2023-03-29T15:17:53.670Z,25.93
2023-03-29T15:20:31.746Z,25.92
2023-03-29T15:23:06.244Z,25.91
2023-03-29T15:25:40.569Z,25.89
2023-03-29T15:28:29.543Z,25.89
2023-03-29T15:31:08.221Z,25.87
2023-03-29T15:33:41.565Z,25.86
2023-03-29T15:36:17.126Z,25.85
2023-03-29T15:38:52.035Z,25.83
2023-03-29T15:41:23.365Z,25.82
2023-03-29T15:43:53.624Z,25.80
2023-03-29T15:46:45.217Z,25.80
2023-03-29T15:49:17.414Z,25.77
2023-03-29T15:51:50.623Z,25.76
2023-03-29T15:54:21.333Z,25.77
2023-03-29T15:56:57.327Z,25.78
2023-03-29T15:59:28.137Z,25.78
2023-03-29T16:01:59.283Z,25.76
2023-03-29T16:04:29.334Z,25.73
2023-03-29T16:07:01.629Z,25.70
2023-03-29T16:09:32.076Z,25.68
2023-03-29T16:12:02.808Z,25.65
2023-03-29T16:14:34.021Z,25.62
2023-03-29T16:17:05.318Z,25.61
2023-03-29T16:19:37.530Z,25.59
2023-03-29T16:22:10.037Z,25.58
2023-03-29T16:24:40.802Z,25.56
2023-03-29T16:27:11.560Z,25.55
2023-03-29T16:29:42.038Z,25.53
2023-03-29T16:32:13.294Z,25.52
2023-03-29T16:34:43.725Z,25.47
2023-03-29T16:37:16.553Z,25.45
2023-03-29T16:39:47.137Z,25.43
2023-03-29T16:42:17.544Z,25.43
2023-03-29T16:44:48.059Z,25.41
2023-03-29T16:47:17.954Z,25.39
2023-03-29T16:49:49.094Z,25.38
2023-03-29T16:52:21.290Z,25.35
2023-03-29T16:54:53.443Z,25.31
2023-03-29T16:57:24.180Z,25.29
2023-03-29T16:59:53.921Z,25.27
2023-03-29T17:02:24.560Z,25.27
2023-03-29T17:04:55.166Z,25.24
2023-03-29T17:07:27.900Z,25.23
2023-03-29T17:09:58.297Z,25.22
2023-03-29T17:12:28.998Z,25.22
2023-03-29T17:15:00.140Z,25.22
2023-03-29T17:17:30.176Z,25.21
2023-03-29T17:20:00.847Z,25.21
2023-03-29T17:22:32.819Z,25.18
2023-03-29T17:25:04.071Z,25.15
2023-03-29T17:27:34.780Z,25.09
2023-03-29T17:30:05.360Z,25.07
2023-03-29T17:32:36.169Z,25.02
2023-03-29T17:35:07.407Z,24.96
2023-03-29T17:37:40.019Z,24.91
2023-03-29T17:40:14.291Z,24.85
2023-03-29T17:42:46.868Z,24.83
2023-03-29T17:45:18.360Z,24.80
2023-03-29T17:47:49.990Z,24.78
2023-03-29T17:50:21.867Z,24.78
2023-03-29T17:52:54.461Z,24.78
2023-03-29T17:55:24.132Z,24.77
2023-03-29T17:57:54.388Z,24.77
2023-03-29T18:00:25.422Z,24.78
2023-03-29T18:02:56.214Z,24.79
2023-03-29T18:05:26.493Z,24.77
2023-03-29T18:07:59.134Z,24.77
2023-03-29T18:10:29.708Z,24.77
2023-03-29T18:13:00.872Z,24.79
2023-03-29T18:15:31.391Z,24.80
2023-03-29T18:18:02.182Z,24.80
2023-03-29T18:20:32.665Z,24.81
2023-03-29T18:23:05.144Z,24.78
2023-03-29T18:25:35.174Z,24.77
2023-03-29T18:28:05.105Z,24.75
2023-03-29T18:30:35.606Z,24.73
2023-03-29T18:33:05.996Z,24.70
2023-03-29T18:35:37.099Z,24.66
2023-03-29T18:38:10.157Z,24.64
2023-03-29T18:40:41.196Z,24.62
2023-03-29T18:43:11.453Z,24.62
2023-03-29T18:45:41.965Z,24.61
2023-03-29T18:48:12.889Z,24.61
2023-03-29T18:50:46.617Z,24.62
2023-03-29T18:53:19.408Z,24.60
2023-03-29T18:55:49.321Z,24.57
2023-03-29T18:58:24.161Z,24.55
2023-03-29T19:00:55.072Z,24.53
2023-03-29T19:03:25.765Z,24.52
2023-03-29T19:05:56.375Z,24.49
2023-03-29T19:08:29.134Z,24.47
2023-03-29T19:11:05.944Z,24.46
2023-03-29T19:13:36.431Z,24.44
2023-03-29T19:16:08.404Z,24.43
2023-03-29T19:18:38.902Z,24.41
2023-03-29T19:21:09.369Z,24.38
2023-03-29T19:23:42.376Z,24.38
2023-03-29T19:26:14.184Z,24.38
2023-03-29T19:28:44.638Z,24.38
2023-03-29T19:31:16.278Z,24.41
2023-03-29T19:33:46.895Z,24.41
2023-03-29T19:36:17.362Z,24.43
2023-03-29T19:38:49.666Z,24.43
2023-03-29T19:41:20.383Z,24.43
2023-03-29T19:43:51.449Z,24.44
2023-03-29T19:46:21.990Z,24.46
2023-03-29T19:48:55.974Z,24.47
2023-03-29T19:51:28.931Z,24.44
2023-03-29T19:54:01.409Z,24.42
2023-03-29T19:56:33.424Z,24.41
2023-03-29T19:59:03.952Z,24.38
2023-03-29T20:01:34.592Z,24.37
2023-03-29T20:04:05.136Z,24.34
2023-03-29T20:06:35.541Z,24.30
2023-03-29T20:09:07.994Z,24.28
2023-03-29T20:11:38.124Z,24.26
2023-03-29T20:14:08.895Z,24.24
2023-03-29T20:16:39.663Z,24.24
2023-03-29T20:19:09.590Z,24.20
2023-03-29T20:21:40.117Z,24.16
2023-03-29T20:24:13.759Z,24.11
2023-03-29T20:26:44.168Z,24.10
2023-03-29T20:29:15.682Z,24.10
2023-03-29T20:31:46.548Z,24.09
2023-03-29T20:34:18.654Z,24.10
2023-03-29T20:36:49.638Z,24.10
2023-03-29T20:39:25.835Z,24.09
2023-03-29T20:41:56.544Z,24.07
2023-03-29T20:44:28.932Z,24.07
2023-03-29T20:47:05.537Z,24.09
2023-03-29T20:49:39.684Z,24.09
2023-03-29T20:52:15.924Z,24.10
2023-03-29T20:54:48.999Z,24.09
2023-03-29T20:57:22.798Z,24.11
2023-03-29T20:59:53.706Z,24.12
2023-03-29T21:02:26.336Z,24.13
2023-03-29T21:05:00.798Z,24.12
2023-03-29T21:07:30.686Z,24.14
2023-03-29T21:10:03.293Z,24.16
2023-03-29T21:12:33.767Z,24.16
2023-03-29T21:15:04.789Z,24.16
2023-03-29T21:17:34.723Z,24.16
2023-03-29T21:20:10.744Z,24.14
2023-03-29T21:22:43.389Z,24.11
2023-03-29T21:25:18.997Z,24.08
2023-03-29T21:27:49.954Z,24.07
2023-03-29T21:30:21.053Z,24.07
2023-03-29T21:32:51.447Z,24.06
2023-03-29T21:35:22.273Z,24.04
2023-03-29T21:37:53.028Z,24.04
2023-03-29T21:40:25.699Z,24.03
2023-03-29T21:42:56.287Z,23.98
2023-03-29T21:45:26.645Z,23.93
2023-03-29T21:47:57.313Z,23.90
2023-03-29T21:50:27.913Z,23.91
2023-03-29T21:52:58.455Z,23.93
2023-03-29T21:55:31.319Z,23.93
2023-03-29T21:58:01.371Z,23.93
2023-03-29T22:00:32.145Z,23.93
2023-03-29T22:03:02.200Z,23.93
2023-03-29T22:05:33.577Z,23.93
2023-03-29T22:08:04.729Z,23.93
2023-03-29T22:10:42.202Z,23.91
2023-03-29T22:13:12.857Z,23.90
2023-03-29T22:15:43.206Z,23.91
2023-03-29T22:18:13.752Z,23.88
2023-03-29T22:20:45.398Z,23.88
2023-03-29T22:23:16.266Z,23.85
2023-03-29T22:25:47.814Z,23.86
2023-03-29T22:28:18.620Z,23.85
2023-03-29T22:30:49.744Z,23.85
2023-03-29T22:33:20.076Z,23.85
2023-03-29T22:35:50.513Z,23.84
2023-03-29T22:38:21.145Z,23.86
2023-03-29T22:40:53.190Z,23.86
2023-03-29T22:43:23.824Z,23.85
2023-03-29T22:45:54.783Z,23.86
2023-03-29T22:48:25.465Z,23.85
2023-03-29T22:50:56.104Z,23.84
2023-03-29T22:53:27.466Z,23.82
2023-03-29T22:55:59.506Z,23.82
2023-03-29T22:58:30.453Z,23.81
2023-03-29T23:01:02.271Z,23.82
2023-03-29T23:03:32.511Z,23.81
2023-03-29T23:06:04.532Z,23.82
2023-03-29T23:08:36.701Z,23.84
2023-03-29T23:11:09.505Z,23.84
2023-03-29T23:13:39.866Z,23.83
2023-03-29T23:16:10.885Z,23.83
2023-03-29T23:18:41.107Z,23.84
2023-03-29T23:21:11.507Z,23.85
2023-03-29T23:23:41.252Z,23.86
2023-03-29T23:26:15.608Z,23.83
2023-03-29T23:28:46.197Z,23.79
2023-03-29T23:31:20.181Z,23.75
2023-03-29T23:33:51.037Z,23.73
2023-03-29T23:36:23.342Z,23.70
2023-03-29T23:38:54.150Z,23.69
2023-03-29T23:41:28.525Z,23.69
2023-03-29T23:43:59.112Z,23.70
2023-03-29T23:46:29.784Z,23.71
2023-03-29T23:49:00.265Z,23.70
2023-03-29T23:51:30.728Z,23.67
2023-03-29T23:54:01.170Z,23.64
2023-03-29T23:56:33.918Z,23.62
2023-03-29T23:59:05.448Z,23.60
